Time;durP1;ratioP1;P1;durP2;ratioP2;P2;SDS_P1;SDS_P2;PMS_P1;PMS_P2;Temp;Humidity;BMP_temperature;BMP_pressure;BME280_temperature;BME280_humidity;BME280_pressure;Samples;Min_cycle;Max_cycle;Signal;HPM_P1;HPM_P2
2022/11/06 00:01:13;;;;;;;6.93;5.97;;;10.90;99.90;;;;;;4974585;28;20232;-73
2022/11/06 00:03:39;;;;;;;8.60;5.97;;;10.80;99.90;;;;;;4974524;28;20170;-71
2022/11/06 00:08:55;;;;;;;10.10;5.90;;;10.70;99.90;;;;;;4960210;28;20455;-71
2022/11/06 00:11:20;;;;;;;9.67;6.50;;;10.80;99.90;;;;;;4974369;28;20441;-73
2022/11/06 00:13:46;;;;;;;6.20;5.60;;;10.80;99.90;;;;;;4974502;28;20592;-75
2022/11/06 00:16:13;;;;;;;14.57;7.50;;;10.80;99.90;;;;;;4974469;28;20193;-72
2022/11/06 00:18:40;;;;;;;9.13;5.23;;;10.70;99.90;;;;;;4974576;28;20457;-73
2022/11/06 00:21:14;;;;;;;7.50;6.10;;;10.80;99.90;;;;;;4974448;28;20425;-73
2022/11/06 00:23:40;;;;;;;14.00;5.93;;;10.70;99.90;;;;;;4974533;28;20508;-73
2022/11/06 00:26:11;;;;;;;8.07;5.53;;;10.80;99.90;;;;;;4974189;28;20983;-72
2022/11/06 00:28:37;;;;;;;6.13;5.00;;;10.80;99.90;;;;;;4974252;28;20424;-73
2022/11/06 00:31:08;;;;;;;6.97;5.27;;;10.80;99.90;;;;;;4974242;28;20429;-72
2022/11/06 00:33:35;;;;;;;7.83;5.30;;;10.70;99.90;;;;;;4973874;28;20288;-72
2022/11/06 00:36:05;;;;;;;8.77;5.70;;;10.70;99.90;;;;;;4974216;28;20537;-72
2022/11/06 00:38:31;;;;;;;9.63;5.00;;;10.70;99.90;;;;;;4973514;28;20512;-72
2022/11/06 00:41:00;;;;;;;11.17;5.87;;;10.80;99.90;;;;;;4974104;28;20433;-71
2022/11/06 00:43:26;;;;;;;9.77;6.80;;;10.70;99.90;;;;;;4974067;28;20842;-72
2022/11/06 00:45:51;;;;;;;8.70;4.57;;;10.80;99.90;;;;;;4974004;28;20484;-73
2022/11/06 00:48:17;;;;;;;6.77;4.50;;;10.80;99.90;;;;;;4973844;28;20264;-73
2022/11/06 00:50:42;;;;;;;8.03;5.40;;;10.80;99.90;;;;;;4973947;28;20552;-71
2022/11/06 00:53:08;;;;;;;8.13;5.60;;;10.80;99.90;;;;;;4973817;28;20181;-71
2022/11/06 00:55:33;;;;;;;8.07;4.60;;;10.70;99.90;;;;;;4973819;28;20177;-72
2022/11/06 00:57:59;;;;;;;9.87;4.70;;;10.70;99.90;;;;;;4973871;28;20178;-71
2022/11/06 01:00:24;;;;;;;6.80;4.23;;;10.80;99.90;;;;;;4973687;28;20213;-72
2022/11/06 01:02:50;;;;;;;12.07;4.57;;;10.80;99.90;;;;;;4965143;28;20702;-72
2022/11/06 01:05:16;;;;;;;10.97;6.53;;;10.70;99.90;;;;;;4954169;29;20678;-75
2022/11/06 01:07:41;;;;;;;9.40;4.33;;;10.70;99.90;;;;;;4954443;29;20269;-74
2022/11/06 01:10:07;;;;;;;7.30;5.57;;;10.60;99.90;;;;;;4954429;29;20701;-73
2022/11/06 01:12:34;;;;;;;10.73;5.93;;;10.60;99.90;;;;;;4954217;29;20238;-73
2022/11/06 01:15:00;;;;;;;8.50;5.30;;;10.50;99.90;;;;;;4954394;29;20480;-74
2022/11/06 01:17:25;;;;;;;7.47;4.43;;;10.60;99.90;;;;;;4954195;29;20426;-73
2022/11/06 01:19:51;;;;;;;7.70;4.40;;;10.60;99.90;;;;;;4954183;28;20422;-74
2022/11/06 01:22:17;;;;;;;8.23;5.17;;;10.60;99.90;;;;;;4954089;29;20183;-74
2022/11/06 01:24:42;;;;;;;5.87;3.63;;;10.60;99.90;;;;;;4954090;28;20213;-74
2022/11/06 01:27:09;;;;;;;8.00;4.80;;;10.60;99.90;;;;;;4954167;29;20488;-73
2022/11/06 01:29:34;;;;;;;8.60;3.97;;;10.60;99.90;;;;;;4954009;29;20269;-72
2022/11/06 01:32:00;;;;;;;4.33;3.30;;;10.50;99.90;;;;;;4953860;29;20479;-73
2022/11/06 05:30:14;;;;;;;4.07;2.50;;;10.00;99.90;;;;;;5949431;23;20403;31
2022/11/06 05:32:40;;;;;;;3.07;2.57;;;10.10;99.90;;;;;;4822472;29;20541;-75
2022/11/06 05:35:06;;;;;;;4.37;3.20;;;10.00;99.90;;;;;;4823149;29;20440;-76
2022/11/06 05:37:31;;;;;;;8.00;2.37;;;10.00;99.90;;;;;;4823339;29;20180;-76
2022/11/06 05:39:57;;;;;;;11.77;2.67;;;10.00;99.90;;;;;;4823387;29;20198;-75
2022/11/06 05:42:22;;;;;;;4.67;2.40;;;10.00;99.90;;;;;;4823260;29;20227;-75
2022/11/06 05:44:48;;;;;;;6.60;2.40;;;10.00;99.90;;;;;;4823269;29;20186;-74
2022/11/06 05:47:13;;;;;;;4.93;2.30;;;10.00;99.90;;;;;;4823128;29;20218;-74
2022/11/06 05:49:39;;;;;;;5.60;2.40;;;10.00;99.90;;;;;;4823306;29;20692;-74
2022/11/06 05:52:05;;;;;;;3.40;2.40;;;10.10;99.90;;;;;;4823033;29;20589;-75
2022/11/06 05:54:30;;;;;;;3.70;2.60;;;10.10;99.90;;;;;;4823289;29;20175;-75
2022/11/06 05:56:56;;;;;;;10.03;2.83;;;10.00;99.90;;;;;;4823103;29;20179;-75
2022/11/06 05:59:21;;;;;;;3.00;2.70;;;10.00;99.90;;;;;;4823146;29;20222;-76
2022/11/06 06:01:47;;;;;;;7.73;2.37;;;10.00;99.90;;;;;;4823033;29;20218;-74
2022/11/06 06:04:12;;;;;;;5.53;2.87;;;10.00;99.90;;;;;;4823113;29;20183;-73
2022/11/06 06:06:38;;;;;;;7.43;2.77;;;10.10;99.90;;;;;;4823089;29;20219;-73
2022/11/06 06:09:03;;;;;;;4.43;2.57;;;10.10;99.90;;;;;;4822958;29;20571;-73
2022/11/06 06:11:29;;;;;;;4.60;2.10;;;10.10;99.90;;;;;;4822969;29;20547;-72
2022/11/06 06:13:54;;;;;;;5.47;1.80;;;10.10;99.90;;;;;;4823052;29;20622;-72
2022/11/06 06:16:20;;;;;;;4.13;2.33;;;9.90;99.90;;;;;;4822965;29;20632;-72
2022/11/06 06:18:49;;;;;;;8.43;2.73;;;9.90;99.90;;;;;;4822982;29;20183;-73
2022/11/06 06:21:14;;;;;;;4.13;1.97;;;10.00;99.90;;;;;;4822901;29;20187;-72
2022/11/06 06:23:40;;;;;;;4.80;2.10;;;10.00;99.90;;;;;;4822940;29;20512;-72
2022/11/06 06:26:06;;;;;;;3.30;1.80;;;10.10;99.90;;;;;;4822680;29;20219;-73
2022/11/06 06:28:32;;;;;;;9.53;2.20;;;10.10;99.90;;;;;;4822958;29;20448;-73
2022/11/06 06:30:57;;;;;;;3.23;2.30;;;10.10;99.90;;;;;;4808824;29;20640;-74
2022/11/06 06:33:23;;;;;;;2.90;2.20;;;10.10;99.90;;;;;;4840476;29;20628;-73
2022/11/06 06:35:48;;;;;;;4.77;2.00;;;10.10;99.90;;;;;;4843377;29;20192;-73
2022/11/06 06:38:14;;;;;;;5.50;2.20;;;10.10;99.90;;;;;;4845104;29;20182;-73
2022/11/06 06:40:39;;;;;;;2.77;2.50;;;10.20;99.90;;;;;;4845094;29;20191;-74
2022/11/06 06:43:05;;;;;;;7.07;2.53;;;10.10;99.90;;;;;;4845040;29;20235;-75
2022/11/06 06:45:30;;;;;;;3.30;2.10;;;10.00;99.90;;;;;;4844802;29;20206;-74
2022/11/06 06:48:01;;;;;;;5.63;2.13;;;10.00;99.90;;;;;;4844939;29;20187;-75
2022/11/06 06:50:27;;;;;;;6.63;2.97;;;10.10;99.90;;;;;;4844993;29;20262;-80
2022/11/06 06:52:56;;;;;;;8.53;2.20;;;10.10;99.90;;;;;;4843794;29;20924;-79
2022/11/06 06:55:22;;;;;;;2.57;2.20;;;10.10;99.90;;;;;;4843877;29;20195;-76
2022/11/06 06:57:53;;;;;;;6.33;2.23;;;10.10;99.90;;;;;;4843693;29;20491;-76
2022/11/06 07:00:19;;;;;;;13.30;2.47;;;10.10;99.90;;;;;;4843965;29;20225;-77
2022/11/06 07:02:45;;;;;;;5.27;2.40;;;10.10;99.90;;;;;;4843706;29;20942;-80
2022/11/06 07:05:10;;;;;;;6.13;3.07;;;10.10;99.90;;;;;;4843450;29;20770;-75
2022/11/06 07:07:36;;;;;;;6.40;2.30;;;10.10;99.90;;;;;;4843756;29;20182;-75
2022/11/06 07:10:02;;;;;;;5.57;2.37;;;10.10;99.90;;;;;;4843545;29;20598;-76
2022/11/06 07:12:28;;;;;;;3.33;2.13;;;10.10;99.90;;;;;;4843413;29;20209;-75
2022/11/06 07:14:53;;;;;;;3.00;2.13;;;10.10;99.90;;;;;;4843590;29;20526;-85
2022/11/06 07:17:19;;;;;;;12.90;2.90;;;10.20;99.90;;;;;;4843481;29;20214;-76
2022/11/06 07:19:44;;;;;;;13.53;3.63;;;10.20;99.90;;;;;;4843968;29;20175;-85
2022/11/06 07:22:10;;;;;;;3.80;2.20;;;10.20;99.90;;;;;;4843272;29;20278;-74
2022/11/06 07:24:36;;;;;;;4.70;2.30;;;10.30;99.90;;;;;;4843362;29;20714;-72
2022/11/06 07:27:01;;;;;;;5.07;2.30;;;10.30;99.90;;;;;;4843037;29;20245;-75
2022/11/06 07:29:27;;;;;;;6.50;2.10;;;10.30;99.90;;;;;;4843262;29;20242;-72
2022/11/06 07:31:52;;;;;;;7.90;2.10;;;10.30;99.90;;;;;;4842965;29;20269;-75
2022/11/06 07:34:18;;;;;;;9.67;2.57;;;10.40;99.90;;;;;;4843034;29;20189;-83
2022/11/06 07:36:43;;;;;;;4.87;1.93;;;10.60;99.90;;;;;;4843131;29;20183;-78
2022/11/06 07:39:09;;;;;;;6.27;2.37;;;10.60;99.90;;;;;;4843104;29;20179;-78
2022/11/06 07:41:35;;;;;;;10.93;2.43;;;10.70;99.90;;;;;;4843195;29;20182;-73
2022/11/06 07:44:01;;;;;;;9.63;2.10;;;10.80;99.90;;;;;;4842825;29;20182;-80
2022/11/06 07:46:27;;;;;;;7.40;2.13;;;10.80;99.90;;;;;;4841389;29;20493;-76
2022/11/06 07:48:53;;;;;;;5.30;2.60;;;10.90;99.90;;;;;;4824526;29;20184;-74
2022/11/06 07:51:19;;;;;;;4.70;2.00;;;10.90;99.90;;;;;;4824605;29;20267;-74
2022/11/06 07:53:45;;;;;;;3.57;2.33;;;10.90;99.90;;;;;;4824652;29;20975;-73
2022/11/06 07:56:10;;;;;;;4.30;1.80;;;10.90;99.90;;;;;;4824505;29;20280;-74
2022/11/06 07:58:36;;;;;;;7.57;2.87;;;11.00;99.90;;;;;;4824538;29;20230;-81
2022/11/06 08:01:02;;;;;;;6.27;2.13;;;11.00;99.90;;;;;;4823841;29;20190;-74
2022/11/06 08:03:31;;;;;;;3.43;2.00;;;11.00;99.90;;;;;;4823383;29;21008;-76
2022/11/06 08:06:02;;;;;;;4.60;2.37;;;11.10;99.90;;;;;;4824037;29;20468;-74
2022/11/06 08:08:28;;;;;;;1.97;1.77;;;11.10;99.90;;;;;;4824260;29;20932;-75
2022/11/06 08:10:54;;;;;;;6.43;2.20;;;11.00;99.90;;;;;;4823790;29;20443;-74
2022/11/06 08:13:19;;;;;;;2.80;2.23;;;10.90;99.90;;;;;;4824177;29;20624;-74
2022/11/06 08:15:45;;;;;;;3.47;1.90;;;11.00;99.90;;;;;;4823989;29;20591;-74
2022/11/06 08:18:11;;;;;;;5.70;2.27;;;11.20;99.90;;;;;;4824085;29;20184;-75
2022/11/06 08:20:37;;;;;;;7.43;2.40;;;11.20;99.90;;;;;;4824153;29;20180;-76
2022/11/06 08:23:05;;;;;;;6.27;2.23;;;11.30;99.90;;;;;;4824154;29;20501;-75
2022/11/06 08:25:32;;;;;;;2.77;2.57;;;11.40;99.90;;;;;;4823863;29;20570;-75
2022/11/06 08:27:59;;;;;;;6.73;2.27;;;11.40;99.90;;;;;;4824150;29;20436;-83
2022/11/06 08:30:25;;;;;;;6.33;4.73;;;11.50;99.90;;;;;;4825171;29;20444;-73
2022/11/06 08:32:51;;;;;;;3.27;2.27;;;11.60;99.90;;;;;;4842145;29;20447;-72
2022/11/06 08:35:17;;;;;;;4.67;1.57;;;11.60;99.90;;;;;;4842093;29;20431;-75
2022/11/06 08:37:42;;;;;;;5.77;2.63;;;11.70;99.90;;;;;;4841877;29;20273;-76
2022/11/06 08:40:09;;;;;;;7.60;2.90;;;11.70;99.90;;;;;;4841878;29;20179;-74
2022/11/06 08:42:34;;;;;;;5.40;2.20;;;11.80;99.90;;;;;;4841915;29;20214;-73
2022/11/06 08:45:00;;;;;;;7.07;2.70;;;11.80;99.90;;;;;;4842084;29;20463;-73
2022/11/06 08:47:25;;;;;;;9.03;2.63;;;11.90;99.90;;;;;;4841876;29;20562;-74
2022/11/06 08:49:51;;;;;;;5.53;2.70;;;11.90;99.90;;;;;;4841813;29;20179;-73
2022/11/06 08:52:19;;;;;;;6.80;2.10;;;12.10;99.90;;;;;;4842353;29;20580;-77
2022/11/06 08:54:45;;;;;;;7.10;2.70;;;11.90;99.90;;;;;;4841889;29;20227;-80
2022/11/06 08:57:10;;;;;;;13.77;2.70;;;12.00;99.90;;;;;;4841558;29;20443;-79
2022/11/06 08:59:36;;;;;;;8.37;2.50;;;12.00;99.90;;;;;;4841439;29;20653;-80
2022/11/06 09:02:01;;;;;;;6.60;3.00;;;12.00;99.90;;;;;;4841726;29;20178;-73
2022/11/06 09:04:27;;;;;;;5.70;2.30;;;12.00;99.90;;;;;;4855793;29;20243;-77
2022/11/06 09:06:54;;;;;;;3.33;2.00;;;12.00;99.90;;;;;;4859644;29;20430;-76
2022/11/06 09:09:20;;;;;;;12.80;2.63;;;12.10;99.90;;;;;;4860102;29;20507;-79
2022/11/06 09:11:46;;;;;;;3.43;2.23;;;12.10;99.90;;;;;;4860153;29;20518;-76
2022/11/06 09:14:11;;;;;;;6.83;3.23;;;12.30;99.90;;;;;;4859760;29;20182;-77
2022/11/06 09:16:37;;;;;;;3.67;2.13;;;12.40;99.90;;;;;;4859959;29;20360;-75
2022/11/06 09:19:02;;;;;;;5.93;2.50;;;12.30;99.90;;;;;;4851726;29;20179;-78
2022/11/06 09:21:28;;;;;;;4.50;1.80;;;12.30;99.90;;;;;;4850676;29;20186;-78
2022/11/06 09:23:53;;;;;;;8.40;2.60;;;12.40;99.90;;;;;;4852627;29;20189;-76
2022/11/06 09:26:19;;;;;;;6.53;2.23;;;12.40;99.90;;;;;;4849545;29;20210;-76
2022/11/06 09:28:46;;;;;;;4.50;2.27;;;12.40;99.90;;;;;;4851395;29;20192;-77
2022/11/06 09:31:11;;;;;;;6.30;2.43;;;12.50;99.90;;;;;;4849518;29;20677;-76
2022/11/06 09:33:37;;;;;;;2.97;2.20;;;12.60;99.90;;;;;;4857430;29;20474;-77
2022/11/06 09:36:04;;;;;;;6.43;1.97;;;12.60;99.90;;;;;;4851643;29;20194;-79
2022/11/06 09:38:30;;;;;;;6.67;1.77;;;12.70;99.90;;;;;;4832689;29;20186;-79
2022/11/06 09:40:58;;;;;;;4.43;2.10;;;12.60;99.90;;;;;;4850606;29;20926;-76
2022/11/06 09:43:45;;;;;;;5.93;2.30;;;12.60;99.90;;;;;;4848595;29;20198;-76
2022/11/06 09:46:24;;;;;;;7.63;2.10;;;12.50;99.90;;;;;;4847692;29;20912;-79
2022/11/06 09:49:00;;;;;;;6.43;2.40;;;12.50;99.90;;;;;;4849327;29;20453;-76
2022/11/06 09:52:01;;;;;;;3.33;2.60;;;12.50;99.90;;;;;;4850564;29;20962;-77
2022/11/06 09:54:51;;;;;;;3.80;2.23;;;12.40;99.90;;;;;;4858899;29;20442;-75
2022/11/06 09:57:21;;;;;;;2.43;1.83;;;12.40;99.90;;;;;;4859628;29;20438;-76
2022/11/06 09:59:48;;;;;;;5.33;2.20;;;12.50;99.90;;;;;;4859643;29;20829;-77
2022/11/06 10:02:36;;;;;;;4.03;2.67;;;12.50;99.90;;;;;;4854333;29;20442;-77
2022/11/06 10:05:10;;;;;;;4.30;2.27;;;12.60;99.90;;;;;;4851506;29;20946;-76
2022/11/06 10:07:39;;;;;;;5.40;1.92;;;12.50;99.90;;;;;;4831727;29;20462;-76
2022/11/06 10:10:11;;;;;;;8.10;2.10;;;12.60;99.90;;;;;;4851231;29;20205;-75
2022/11/06 10:13:00;;;;;;;8.47;2.40;;;12.70;99.90;;;;;;4852457;29;20569;-74
2022/11/06 10:15:48;;;;;;;5.80;2.30;;;12.70;99.90;;;;;;4850839;29;20426;-78
2022/11/06 10:18:44;;;;;;;4.13;1.97;;;12.70;99.90;;;;;;4861448;29;20430;-75
2022/11/06 10:21:19;;;;;;;7.83;2.10;;;12.80;99.90;;;;;;4863027;29;20807;-75
2022/11/06 10:23:53;;;;;;;7.73;2.43;;;12.90;99.90;;;;;;4853155;29;20846;-82
2022/11/06 10:26:24;;;;;;;6.17;2.77;;;12.90;99.90;;;;;;4854023;29;20561;-77
2022/11/06 10:29:13;;;;;;;3.80;1.73;;;13.00;99.90;;;;;;4853467;29;20497;-75
2022/11/06 10:31:51;;;;;;;6.23;2.73;;;13.00;99.90;;;;;;4851754;29;20554;-79
2022/11/06 10:34:23;;;;;;;4.80;2.23;;;13.00;99.90;;;;;;4853928;29;20436;-76
2022/11/06 10:37:12;;;;;;;18.23;2.40;;;13.00;99.90;;;;;;4852757;29;20435;-80
2022/11/06 10:39:38;;;;;;;6.10;2.60;;;12.90;99.90;;;;;;4853590;29;20486;-78
2022/11/06 10:42:13;;;;;;;4.93;2.17;;;13.00;99.90;;;;;;4851516;29;20439;-76
2022/11/06 10:45:11;;;;;;;5.80;2.03;;;12.90;99.90;;;;;;4852824;29;21323;-79
2022/11/06 10:47:48;;;;;;;3.80;2.47;;;13.00;99.90;;;;;;4853439;29;20459;-74
2022/11/06 10:50:16;;;;;;;11.87;2.47;;;13.10;99.90;;;;;;4850959;29;20443;-72
2022/11/06 10:52:47;;;;;;;7.30;2.30;;;13.20;99.90;;;;;;4843679;29;20513;-72
2022/11/06 10:55:40;;;;;;;7.50;2.00;;;13.30;99.90;;;;;;4843882;29;20831;-72
2022/11/06 10:58:18;;;;;;;3.57;2.77;;;13.30;99.90;;;;;;4843584;29;20439;-75
2022/11/06 11:00:44;;;;;;;7.40;2.20;;;13.20;99.90;;;;;;4842372;29;20423;-73
2022/11/06 11:03:26;;;;;;;12.73;2.57;;;13.40;99.90;;;;;;4843304;29;20467;-78
2022/11/06 11:05:54;;;;;;;9.07;2.10;;;13.60;99.90;;;;;;4850181;29;20817;-78
2022/11/06 11:08:39;;;;;;;6.93;2.20;;;13.60;99.90;;;;;;4853170;29;20196;-77
2022/11/06 11:11:13;;;;;;;4.17;2.00;;;13.60;99.90;;;;;;4853069;29;20942;-77
2022/11/06 11:13:40;;;;;;;4.10;1.90;;;13.60;99.90;;;;;;4860070;29;20568;-77
2022/11/06 11:16:27;;;;;;;4.10;2.37;;;13.60;99.90;;;;;;4861408;29;20454;-78
2022/11/06 11:18:53;;;;;;;4.27;2.00;;;13.60;99.90;;;;;;4858852;29;20521;-76
2022/11/06 11:21:18;;;;;;;6.03;2.37;;;13.60;99.90;;;;;;4860798;29;20537;-77
2022/11/06 11:23:45;;;;;;;9.30;2.80;;;13.40;99.90;;;;;;4860687;29;20230;-77
2022/11/06 11:26:16;;;;;;;4.90;2.33;;;13.50;99.90;;;;;;4855752;29;20199;-78
2022/11/06 11:28:48;;;;;;;13.50;3.80;;;13.50;99.90;;;;;;4851670;29;20446;-78
2022/11/06 11:31:15;;;;;;;13.00;6.57;;;13.60;99.90;;;;;;4852751;29;20966;-79
2022/11/06 11:33:51;;;;;;;4.23;3.00;;;13.60;99.90;;;;;;4852226;29;20473;-79
2022/11/06 11:36:17;;;;;;;3.93;2.23;;;13.80;99.90;;;;;;4852678;29;20506;-78
2022/11/06 11:38:43;;;;;;;6.23;4.70;;;13.80;99.90;;;;;;4852138;29;20436;-78
2022/11/06 11:41:18;;;;;;;3.67;2.30;;;13.80;99.90;;;;;;4850047;29;20642;-77
2022/11/06 11:43:54;;;;;;;7.20;2.67;;;13.80;99.90;;;;;;4843037;29;20438;-77
2022/11/06 11:46:20;;;;;;;4.70;1.97;;;13.80;99.90;;;;;;4848623;29;20482;-77
2022/11/06 11:48:48;;;;;;;5.10;2.67;;;13.70;99.90;;;;;;4851885;29;20431;-77
2022/11/06 11:51:37;;;;;;;4.60;2.60;;;13.70;99.90;;;;;;4852597;29;20169;-77
2022/11/06 11:54:24;;;;;;;6.60;2.60;;;13.60;99.90;;;;;;4852365;29;20433;-76
2022/11/06 11:56:54;;;;;;;8.13;2.47;;;13.60;99.90;;;;;;4852282;29;20513;-77
2022/11/06 11:59:21;;;;;;;5.07;2.70;;;13.70;99.90;;;;;;4851826;29;20442;-78
2022/11/06 12:01:48;;;;;;;5.53;2.30;;;13.60;99.90;;;;;;4844735;29;20786;-76
2022/11/06 12:04:41;;;;;;;7.50;2.97;;;13.60;99.90;;;;;;4849694;29;20450;-77
2022/11/06 12:07:13;;;;;;;7.70;2.80;;;13.50;99.90;;;;;;4845078;29;20852;-78
2022/11/06 12:09:43;;;;;;;5.37;1.90;;;13.40;99.90;;;;;;4858834;29;20575;-77
2022/11/06 12:12:22;;;;;;;4.60;2.00;;;13.40;99.90;;;;;;4852799;29;20578;-77
2022/11/06 12:15:05;;;;;;;3.83;2.43;;;13.50;99.90;;;;;;4851233;29;20454;-77
2022/11/06 12:17:34;;;;;;;6.37;2.70;;;13.40;99.90;;;;;;4851365;29;20446;-77
2022/11/06 12:20:04;;;;;;;2.57;2.07;;;13.40;99.90;;;;;;4853768;29;20470;-77
2022/11/06 12:22:35;;;;;;;4.00;2.30;;;13.50;99.90;;;;;;4860217;29;20441;-77
2022/11/06 12:25:18;;;;;;;6.33;3.10;;;13.40;99.90;;;;;;4855696;29;20438;-77
2022/11/06 12:27:46;;;;;;;3.80;2.40;;;13.50;99.90;;;;;;4858650;29;20458;-77
2022/11/06 12:30:16;;;;;;;4.93;2.43;;;13.40;99.90;;;;;;4859636;29;20880;-77
2022/11/06 12:32:55;;;;;;;4.77;3.20;;;13.40;99.90;;;;;;4853341;29;20522;-77
2022/11/06 12:35:33;;;;;;;5.93;2.20;;;13.50;99.90;;;;;;4851367;29;20862;-75
2022/11/06 12:38:19;;;;;;;2.97;1.60;;;13.50;99.90;;;;;;4854280;29;20446;-76
2022/11/06 12:40:55;;;;;;;3.43;2.30;;;13.40;99.90;;;;;;4859454;29;20984;-77
2022/11/06 12:43:31;;;;;;;5.30;2.40;;;13.40;99.90;;;;;;4853200;29;20868;-76
2022/11/06 12:46:08;;;;;;;9.83;2.40;;;13.50;99.90;;;;;;4851676;29;20565;-77
2022/11/06 12:49:07;;;;;;;5.83;2.50;;;13.50;99.90;;;;;;4851877;29;20433;-77
2022/11/06 12:52:00;;;;;;;3.03;2.40;;;13.60;99.90;;;;;;4849729;29;20521;-77
2022/11/06 12:54:57;;;;;;;5.33;2.60;;;13.50;99.90;;;;;;4849321;29;20431;-77
2022/11/06 12:57:53;;;;;;;3.23;1.77;;;13.50;99.90;;;;;;4848937;29;20448;-76
2022/11/06 13:00:19;;;;;;;5.37;1.87;;;13.60;99.90;;;;;;4830494;29;20848;-74
2022/11/06 13:02:48;;;;;;;3.00;2.10;;;13.60;99.90;;;;;;4856359;29;20533;-75
2022/11/06 13:05:29;;;;;;;9.50;1.90;;;13.50;99.90;;;;;;4850592;29;21004;-74
2022/11/06 13:08:12;;;;;;;3.03;1.93;;;13.50;99.90;;;;;;4851464;29;20448;-75
2022/11/06 13:11:09;;;;;;;4.43;2.13;;;13.50;99.90;;;;;;4851524;29;20436;-75
2022/11/06 13:14:07;;;;;;;4.50;2.03;;;13.50;99.90;;;;;;4858245;29;20479;-76
2022/11/06 13:16:42;;;;;;;4.43;1.87;;;13.40;99.90;;;;;;4859134;29;20490;-74
2022/11/06 13:19:40;;;;;;;2.80;2.00;;;13.40;99.90;;;;;;4859751;29;20438;-73
2022/11/06 13:22:20;;;;;;;3.07;2.00;;;13.40;99.90;;;;;;4859949;29;20434;-73
2022/11/06 13:24:56;;;;;;;4.10;1.90;;;13.40;99.90;;;;;;4859951;29;20453;-73
2022/11/06 13:27:41;;;;;;;3.63;1.70;;;13.40;99.90;;;;;;4859836;29;20841;-73
2022/11/06 13:30:16;;;;;;;7.30;1.93;;;13.40;99.90;;;;;;4859734;29;20426;-73
2022/11/06 13:32:47;;;;;;;3.63;1.97;;;13.30;99.90;;;;;;4859786;29;20547;-73
2022/11/06 13:35:16;;;;;;;7.17;1.73;;;13.30;99.90;;;;;;4859437;29;20448;-74
2022/11/06 13:37:46;;;;;;;5.83;1.90;;;13.40;99.90;;;;;;4859684;29;20446;-73
2022/11/06 13:40:41;;;;;;;5.50;1.83;;;13.40;99.90;;;;;;4859419;29;20490;-73
2022/11/06 13:43:13;;;;;;;2.10;1.67;;;13.40;99.90;;;;;;4859335;29;20438;-74
2022/11/06 13:45:47;;;;;;;2.00;1.53;;;13.50;99.90;;;;;;4862696;29;20825;-74
2022/11/06 13:48:25;;;;;;;9.00;2.47;;;13.40;99.90;;;;;;4846701;29;20461;-73
2022/11/06 13:51:01;;;;;;;5.73;1.80;;;13.50;99.90;;;;;;4863196;29;20863;-72
2022/11/06 13:53:41;;;;;;;3.80;2.10;;;13.50;99.90;;;;;;4852402;29;20516;-73
2022/11/06 13:56:34;;;;;;;3.20;1.90;;;13.50;99.90;;;;;;4852651;29;20434;-76
2022/11/06 13:59:17;;;;;;;5.50;2.33;;;13.50;99.90;;;;;;4853471;29;20426;-73
2022/11/06 14:01:55;;;;;;;5.67;2.47;;;13.40;99.90;;;;;;4854209;29;20438;-73
2022/11/06 14:04:56;;;;;;;3.20;1.50;;;13.40;99.90;;;;;;4861891;29;20445;-75
2022/11/06 14:07:24;;;;;;;6.13;2.00;;;13.40;99.90;;;;;;4799997;29;20853;-82
2022/11/06 14:09:50;;;;;;;3.33;1.80;;;13.30;99.90;;;;;;4843906;29;20431;-78
2022/11/06 14:12:20;;;;;;;4.40;1.80;;;13.30;99.90;;;;;;4862101;29;20442;-78
2022/11/06 14:14:47;;;;;;;1.97;1.77;;;13.40;99.90;;;;;;4857317;29;20181;-78
2022/11/06 14:17:15;;;;;;;3.87;1.70;;;13.40;99.90;;;;;;4863499;29;20452;-76
2022/11/06 14:19:48;;;;;;;3.40;2.10;;;13.40;99.90;;;;;;4862927;29;20788;-75
2022/11/06 14:22:28;;;;;;;3.73;1.90;;;13.40;99.90;;;;;;4862800;29;20419;-73
2022/11/06 14:24:54;;;;;;;2.83;1.77;;;13.30;99.90;;;;;;4862872;29;20430;-73
2022/11/06 14:27:23;;;;;;;3.47;1.90;;;13.20;99.90;;;;;;4846047;29;21046;-73
2022/11/06 14:29:56;;;;;;;3.10;1.80;;;13.20;99.90;;;;;;4862704;29;20422;-76
2022/11/06 14:32:30;;;;;;;3.27;1.90;;;13.20;99.90;;;;;;4862369;29;20482;-74
2022/11/06 14:35:16;;;;;;;3.10;1.90;;;13.20;99.90;;;;;;4862427;29;20426;-75
2022/11/06 14:37:42;;;;;;;5.23;2.33;;;13.20;99.90;;;;;;4861907;29;20442;-78
2022/11/06 14:40:12;;;;;;;4.43;1.77;;;13.20;99.90;;;;;;4861658;29;20435;-78
2022/11/06 14:42:42;;;;;;;4.50;1.93;;;13.20;99.90;;;;;;4861911;29;20178;-77
2022/11/06 14:45:17;;;;;;;2.00;1.70;;;13.30;99.90;;;;;;4861966;29;20441;-77
2022/11/06 14:47:48;;;;;;;4.87;2.47;;;13.40;99.90;;;;;;4859645;29;20477;-71
2022/11/06 14:50:33;;;;;;;2.27;2.00;;;13.30;99.90;;;;;;4861977;29;20439;-71
2022/11/06 14:53:24;;;;;;;2.60;2.00;;;13.30;99.90;;;;;;4861742;29;20933;-73
2022/11/06 14:56:09;;;;;;;5.97;3.53;;;13.20;99.90;;;;;;4859668;29;20438;-75
2022/11/06 14:58:46;;;;;;;4.10;2.60;;;13.30;99.90;;;;;;4861007;29;20442;-72
2022/11/06 15:01:14;;;;;;;3.20;2.50;;;13.30;99.90;;;;;;4860378;29;20800;-73
2022/11/06 15:03:51;;;;;;;3.20;1.50;;;13.40;99.90;;;;;;4861765;29;20439;-73
2022/11/06 15:06:16;;;;;;;3.87;1.60;;;13.20;99.90;;;;;;4861401;29;20490;-72
2022/11/06 15:08:45;;;;;;;2.47;1.70;;;13.30;99.90;;;;;;4861821;29;20427;-73
2022/11/06 15:11:29;;;;;;;5.70;1.67;;;13.30;99.90;;;;;;4860175;29;20575;-73
2022/11/06 15:13:57;;;;;;;4.77;2.03;;;13.20;99.90;;;;;;4858803;29;20442;-73
2022/11/06 15:16:45;;;;;;;2.73;1.47;;;13.20;99.90;;;;;;4860109;29;20503;-73
2022/11/06 15:19:18;;;;;;;3.10;1.73;;;13.10;99.90;;;;;;4859433;29;20916;-74
2022/11/06 15:22:04;;;;;;;5.30;1.93;;;13.10;99.90;;;;;;4859554;29;20442;-74
2022/11/06 15:24:43;;;;;;;2.97;2.23;;;13.10;99.90;;;;;;4859851;29;20466;-75
2022/11/06 15:27:15;;;;;;;4.90;1.47;;;13.20;99.90;;;;;;4859524;29;20554;-73
2022/11/06 15:29:43;;;;;;;2.17;1.80;;;13.10;99.90;;;;;;4861251;29;20525;-77
2022/11/06 15:32:21;;;;;;;4.33;1.87;;;13.00;99.90;;;;;;4860930;29;20511;-71
2022/11/06 15:34:58;;;;;;;6.17;2.40;;;13.00;99.90;;;;;;4859369;29;20437;-72
2022/11/06 15:37:30;;;;;;;3.33;2.13;;;13.00;99.90;;;;;;4858970;29;20987;-75
2022/11/06 15:39:56;;;;;;;2.20;2.00;;;13.00;99.90;;;;;;4861435;29;20775;-75
2022/11/06 15:42:33;;;;;;;6.07;2.47;;;13.00;99.90;;;;;;4861665;29;20781;-72
2022/11/06 15:45:19;;;;;;;3.33;1.90;;;13.00;99.90;;;;;;4860772;29;20791;-73
2022/11/06 15:48:03;;;;;;;3.40;2.43;;;13.00;99.90;;;;;;4860043;29;20478;-72
2022/11/06 15:50:31;;;;;;;3.40;2.10;;;13.10;99.90;;;;;;4859042;29;20454;-72
2022/11/06 15:53:22;;;;;;;3.40;2.20;;;13.00;99.90;;;;;;4856385;29;20438;-71
2022/11/06 15:56:01;;;;;;;2.20;2.00;;;12.90;99.90;;;;;;4859642;29;20442;-72
2022/11/06 15:58:28;;;;;;;3.00;2.70;;;12.90;99.90;;;;;;4858669;29;20525;-73
2022/11/06 16:00:54;;;;;;;5.13;2.17;;;13.00;99.90;;;;;;4851885;29;20442;-71
2022/11/06 16:03:22;;;;;;;4.17;2.37;;;12.90;99.90;;;;;;4859327;29;20431;-71
2022/11/06 16:05:48;;;;;;;2.37;1.90;;;12.90;99.90;;;;;;4859775;29;20729;-71
2022/11/06 16:08:18;;;;;;;2.57;2.37;;;12.80;99.90;;;;;;4859813;29;20958;-71
2022/11/06 16:10:48;;;;;;;3.00;2.47;;;12.80;99.90;;;;;;4857623;29;20492;-75
2022/11/06 16:13:18;;;;;;;4.30;2.03;;;12.70;99.90;;;;;;4859796;29;20813;-77
2022/11/06 16:15:48;;;;;;;2.60;2.40;;;12.80;99.90;;;;;;4860489;29;20434;-71
2022/11/06 16:18:22;;;;;;;4.60;2.87;;;12.70;99.90;;;;;;4859050;29;20525;-72
2022/11/06 16:20:58;;;;;;;3.00;2.40;;;12.60;99.90;;;;;;4860297;29;20559;-71
2022/11/06 16:23:50;;;;;;;2.83;2.40;;;12.60;99.90;;;;;;4858962;29;20445;-85
2022/11/06 16:26:21;;;;;;;2.40;2.20;;;12.60;99.90;;;;;;4860107;29;20591;-72
2022/11/06 16:28:49;;;;;;;3.43;2.67;;;12.60;99.90;;;;;;4859807;29;20443;-75
2022/11/06 16:31:21;;;;;;;4.50;2.23;;;12.50;99.90;;;;;;4859927;29;20493;-73
2022/11/06 16:34:21;;;;;;;5.53;3.83;;;12.50;99.90;;;;;;4860214;29;20528;-72
2022/11/06 16:36:51;;;;;;;3.93;2.07;;;12.50;99.90;;;;;;4846405;29;20773;-73
2022/11/06 16:39:16;;;;;;;2.87;1.90;;;12.40;99.90;;;;;;4857438;29;20946;-75
2022/11/06 16:42:02;;;;;;;2.50;2.17;;;12.30;99.90;;;;;;4860023;29;20437;-77
2022/11/06 16:44:40;;;;;;;3.63;2.10;;;12.30;99.90;;;;;;4851585;29;20185;-79
2022/11/06 16:47:17;;;;;;;5.50;1.90;;;12.20;99.90;;;;;;4852053;29;20489;-81
2022/11/06 16:49:52;;;;;;;3.93;2.13;;;12.10;99.90;;;;;;4857850;29;20447;-81
2022/11/06 16:52:30;;;;;;;3.27;2.33;;;11.90;99.90;;;;;;4860570;29;20462;-74
2022/11/06 16:55:13;;;;;;;2.90;2.47;;;12.00;99.90;;;;;;4858684;29;20955;-80
2022/11/06 16:57:49;;;;;;;3.00;1.93;;;11.90;99.90;;;;;;4858031;29;20430;-80
2022/11/06 17:00:28;;;;;;;2.60;2.40;;;11.70;99.90;;;;;;4857766;29;20784;-77
2022/11/06 17:03:02;;;;;;;3.53;1.97;;;11.60;99.90;;;;;;4857886;29;20427;-78
2022/11/06 17:05:35;;;;;;;5.47;2.47;;;11.60;99.90;;;;;;4859388;29;20470;-77
2022/11/06 17:08:25;;;;;;;3.17;2.50;;;11.60;99.90;;;;;;4859533;29;20456;-78